createdAt,value
2018-07-04T00:02:40.052Z,16.40
2018-07-04T00:05:27.000Z,16.40
2018-07-04T00:08:14.015Z,16.40
2018-07-04T00:11:00.894Z,16.60
2018-07-04T00:13:47.681Z,16.60
2018-07-04T00:16:34.746Z,16.60
2018-07-04T00:19:21.404Z,16.70
2018-07-04T00:22:08.352Z,16.80
2018-07-04T00:24:55.480Z,16.70
2018-07-04T00:27:42.350Z,16.70
2018-07-04T00:30:29.248Z,16.80
2018-07-04T00:33:16.223Z,16.70
2018-07-04T00:36:03.108Z,16.60
2018-07-04T00:38:50.224Z,16.50
2018-07-04T00:41:37.169Z,16.40
2018-07-04T00:44:24.543Z,16.50
2018-07-04T00:47:11.589Z,16.50
2018-07-04T00:49:58.524Z,16.50
2018-07-04T00:52:45.520Z,16.50
2018-07-04T00:55:32.724Z,16.50
2018-07-04T00:58:19.718Z,16.40
2018-07-04T01:01:07.036Z,16.30
2018-07-04T01:03:54.026Z,16.30
2018-07-04T01:06:40.925Z,16.30
2018-07-04T01:09:27.838Z,16.10
2018-07-04T01:12:14.710Z,16.10
2018-07-04T01:15:01.572Z,16.10
2018-07-04T01:17:48.721Z,16.10
2018-07-04T01:20:41.213Z,16.10
2018-07-04T01:23:28.226Z,16.10
2018-07-04T01:26:15.266Z,16.20
2018-07-04T01:29:02.349Z,16.20
2018-07-04T01:31:49.305Z,16.20
2018-07-04T01:34:36.265Z,16.20
2018-07-04T01:37:23.248Z,16.10
2018-07-04T01:40:10.357Z,16.00
2018-07-04T01:42:57.347Z,15.90
2018-07-04T01:45:44.360Z,15.80
2018-07-04T01:48:31.373Z,15.70
2018-07-04T01:51:18.348Z,15.60
2018-07-04T01:54:05.301Z,15.50
2018-07-04T01:56:52.184Z,15.50
2018-07-04T01:59:39.136Z,15.30
2018-07-04T02:02:26.045Z,15.40
2018-07-04T02:05:12.928Z,15.30
2018-07-04T02:07:59.985Z,15.30
2018-07-04T02:10:47.093Z,15.30
2018-07-04T02:13:33.856Z,15.30
2018-07-04T02:16:20.777Z,15.20
2018-07-04T02:19:07.707Z,15.20
2018-07-04T02:21:54.804Z,15.10
2018-07-04T02:24:42.437Z,15.10
2018-07-04T02:27:29.403Z,15.10
2018-07-04T02:30:16.391Z,15.00
2018-07-04T02:33:03.361Z,15.00
2018-07-04T02:35:50.527Z,15.00
2018-07-04T02:38:37.377Z,15.00
2018-07-04T02:41:24.742Z,15.00
2018-07-04T02:44:12.116Z,15.00
2018-07-04T02:46:58.954Z,14.90
2018-07-04T02:49:45.919Z,14.80
2018-07-04T02:52:33.092Z,14.80
2018-07-04T02:55:20.124Z,14.80
2018-07-04T02:58:08.156Z,14.80
2018-07-04T03:00:55.237Z,14.70
2018-07-04T03:03:42.128Z,14.80
2018-07-04T03:06:29.254Z,14.70
2018-07-04T03:09:16.170Z,14.70
2018-07-04T03:12:03.019Z,14.70
2018-07-04T03:14:50.130Z,14.50
2018-07-04T03:17:37.157Z,14.40
2018-07-04T03:20:24.039Z,14.40
2018-07-04T03:23:11.219Z,14.50
2018-07-04T03:25:58.473Z,14.40
2018-07-04T03:28:45.502Z,14.40
2018-07-04T03:31:32.245Z,14.50
2018-07-04T03:34:19.282Z,14.40
2018-07-04T03:37:06.299Z,14.50
2018-07-04T03:39:53.369Z,14.50
2018-07-04T03:42:40.359Z,14.50
2018-07-04T03:45:27.401Z,14.70
2018-07-04T03:48:14.458Z,14.70
2018-07-04T03:51:01.496Z,14.60
2018-07-04T03:53:48.289Z,14.60
2018-07-04T03:56:35.478Z,14.60
2018-07-04T03:59:22.463Z,14.50
2018-07-04T04:02:09.437Z,14.60
2018-07-04T04:04:56.261Z,14.60
2018-07-04T04:07:43.250Z,14.80
2018-07-04T04:10:30.224Z,15.10
2018-07-04T04:13:17.585Z,15.50
2018-07-04T04:16:04.452Z,15.70
2018-07-04T04:18:51.626Z,15.80
2018-07-04T04:21:38.639Z,15.90
2018-07-04T04:24:25.541Z,16.40
2018-07-04T04:27:12.481Z,16.80
2018-07-04T04:29:59.300Z,17.50
2018-07-04T04:32:46.520Z,18.00
2018-07-04T04:35:33.531Z,18.10
2018-07-04T04:38:20.432Z,18.80
2018-07-04T04:41:07.433Z,19.10
2018-07-04T04:43:54.373Z,18.80
2018-07-04T04:46:41.380Z,18.80
2018-07-04T04:49:28.323Z,18.50
2018-07-04T04:52:15.309Z,18.50
2018-07-04T04:55:02.156Z,18.10
2018-07-04T04:57:49.109Z,18.20
2018-07-04T05:00:36.182Z,18.20
2018-07-04T05:03:23.308Z,18.60
2018-07-04T05:06:10.556Z,18.90
2018-07-04T05:08:57.679Z,18.90
2018-07-04T05:11:44.692Z,18.70
2018-07-04T05:14:31.765Z,18.70
2018-07-04T05:17:18.799Z,18.80
2018-07-04T05:20:05.704Z,18.90
2018-07-04T05:22:52.712Z,19.00
2018-07-04T05:25:39.572Z,19.00
2018-07-04T05:28:26.465Z,19.20
2018-07-04T05:31:13.216Z,19.70
2018-07-04T05:34:00.276Z,20.20
2018-07-04T05:36:47.213Z,20.80
2018-07-04T05:39:34.284Z,20.80
2018-07-04T05:42:21.266Z,20.90
2018-07-04T05:45:08.260Z,21.20
2018-07-04T05:47:55.318Z,21.30
2018-07-04T05:50:42.314Z,21.40
2018-07-04T05:53:29.192Z,21.90
2018-07-04T05:56:16.173Z,23.10
2018-07-04T05:59:03.148Z,24.00
2018-07-04T06:01:50.128Z,24.80
2018-07-04T06:04:37.080Z,24.60
2018-07-04T06:07:24.124Z,25.00
2018-07-04T06:10:11.336Z,25.50
2018-07-04T06:12:58.436Z,26.20
2018-07-04T06:15:45.456Z,26.90
2018-07-04T06:18:32.468Z,26.90
2018-07-04T06:21:19.372Z,27.70
2018-07-04T06:24:06.484Z,27.90
2018-07-04T06:26:53.549Z,29.10
2018-07-04T06:29:40.717Z,29.60
2018-07-04T06:32:27.898Z,29.80
2018-07-04T06:35:14.776Z,29.20
2018-07-04T06:37:43.399Z,29.80
2018-07-04T06:40:11.779Z,29.20
2018-07-04T06:42:40.160Z,28.90
2018-07-04T06:45:08.556Z,28.50
2018-07-04T06:47:36.953Z,27.40
2018-07-04T06:50:05.319Z,26.80
2018-07-04T06:52:33.690Z,26.40
2018-07-04T06:55:02.076Z,25.70
2018-07-04T06:57:30.452Z,25.90
2018-07-04T06:59:58.833Z,26.30
2018-07-04T07:02:27.199Z,27.40
2018-07-04T07:05:14.366Z,27.90
2018-07-04T07:08:01.488Z,28.20
2018-07-04T07:10:48.388Z,28.20
2018-07-04T07:13:35.147Z,28.30
2018-07-04T07:16:22.224Z,28.80
2018-07-04T07:19:09.182Z,28.60
2018-07-04T07:21:56.208Z,28.70
2018-07-04T07:24:43.156Z,28.50
2018-07-04T07:27:30.109Z,29.10
2018-07-04T07:30:16.992Z,29.10
2018-07-04T07:33:04.017Z,29.60
2018-07-04T07:35:51.116Z,29.40
2018-07-04T07:38:38.081Z,30.00
2018-07-04T07:41:24.892Z,29.10
2018-07-04T07:46:39.300Z,29.20
2018-07-04T07:49:26.401Z,29.30
2018-07-04T07:52:13.488Z,30.10
2018-07-04T07:55:00.512Z,29.50
2018-07-04T07:57:47.656Z,29.90
2018-07-04T08:00:35.258Z,29.40
2018-07-04T08:03:22.181Z,30.10
2018-07-04T08:06:09.076Z,29.60
2018-07-04T08:08:50.088Z,29.70
2018-07-04T08:11:37.168Z,29.70
2018-07-04T08:14:24.308Z,29.90
2018-07-04T08:17:11.480Z,29.40
2018-07-04T08:19:52.474Z,29.40
2018-07-04T08:22:39.769Z,29.40
2018-07-04T08:25:26.680Z,29.30
2018-07-04T08:28:13.720Z,29.30
2018-07-04T08:31:00.800Z,28.80
2018-07-04T08:33:47.976Z,28.80
2018-07-04T08:36:35.025Z,29.10
2018-07-04T08:39:22.014Z,28.90
2018-07-04T08:42:08.945Z,29.20
2018-07-04T08:44:55.752Z,28.80
2018-07-04T08:47:42.820Z,28.90
2018-07-04T08:50:23.859Z,28.40
2018-07-04T08:53:04.746Z,28.90
2018-07-04T08:55:51.668Z,28.90
2018-07-04T08:58:38.636Z,29.30
2018-07-04T09:01:25.929Z,28.90
2018-07-04T09:04:12.988Z,28.40
2018-07-04T09:07:00.136Z,28.20
2018-07-04T09:09:47.249Z,28.20
2018-07-04T09:12:34.408Z,28.30
2018-07-04T09:15:21.643Z,28.30
2018-07-04T09:18:08.672Z,27.80
2018-07-04T09:20:55.625Z,27.90
2018-07-04T09:23:42.704Z,27.70
2018-07-04T09:26:29.796Z,27.70
2018-07-04T09:29:16.812Z,27.60
2018-07-04T09:32:03.911Z,27.90
2018-07-04T09:34:51.037Z,27.70
2018-07-04T09:37:38.097Z,27.90
2018-07-04T09:40:25.104Z,27.70
2018-07-04T09:43:12.329Z,27.40
2018-07-04T09:45:59.612Z,27.40
2018-07-04T09:48:46.480Z,27.40
2018-07-04T09:51:33.540Z,27.40
2018-07-04T09:54:20.436Z,27.50
2018-07-04T09:57:07.592Z,27.40
2018-07-04T09:59:54.440Z,27.30
2018-07-04T10:02:41.277Z,27.10
2018-07-04T10:05:28.149Z,27.10
2018-07-04T10:08:15.285Z,27.00
2018-07-04T10:11:02.480Z,27.10
2018-07-04T10:13:49.548Z,27.20
2018-07-04T10:16:36.656Z,27.10
2018-07-04T10:19:23.801Z,27.20
2018-07-04T10:22:10.968Z,27.30
2018-07-04T10:24:58.060Z,27.50
2018-07-04T10:27:45.100Z,27.20
2018-07-04T10:30:26.093Z,27.20
2018-07-04T10:33:16.487Z,27.40
2018-07-04T10:36:03.625Z,27.60
2018-07-04T10:38:50.589Z,27.40
2018-07-04T10:41:37.552Z,27.30
2018-07-04T10:44:24.772Z,27.30
2018-07-04T10:47:11.689Z,27.10
2018-07-04T10:49:58.842Z,26.90
2018-07-04T10:52:39.854Z,26.90
2018-07-04T10:55:26.870Z,27.10
2018-07-04T10:58:14.029Z,27.30
2018-07-04T11:01:00.936Z,27.70
2018-07-04T11:03:47.873Z,27.70
2018-07-04T11:06:34.968Z,27.50
2018-07-04T11:09:21.932Z,27.50
2018-07-04T11:12:08.950Z,27.70
2018-07-04T11:14:56.212Z,27.80
2018-07-04T11:17:43.181Z,27.90
2018-07-04T11:20:30.164Z,27.60
2018-07-04T11:23:17.364Z,27.80
2018-07-04T11:26:04.428Z,27.60
2018-07-04T11:28:51.521Z,27.90
2018-07-04T11:31:38.733Z,28.10
2018-07-04T11:34:25.627Z,28.50
2018-07-04T11:37:12.660Z,28.50
2018-07-04T11:39:59.732Z,28.60
2018-07-04T11:42:46.724Z,28.50
2018-07-04T11:45:33.793Z,28.30
2018-07-04T11:48:02.188Z,28.40
2018-07-04T11:50:31.025Z,28.30
2018-07-04T11:52:59.390Z,28.20
2018-07-04T11:55:27.796Z,27.90
2018-07-04T11:57:56.207Z,27.90
2018-07-04T12:00:24.600Z,27.90
2018-07-04T12:02:53.016Z,27.70
2018-07-04T12:05:40.041Z,27.70
2018-07-04T12:08:08.409Z,27.80
2018-07-04T12:10:36.780Z,27.80
2018-07-04T12:13:05.173Z,27.60
2018-07-04T12:15:33.540Z,27.50
2018-07-04T12:18:01.912Z,27.50
2018-07-04T12:20:30.324Z,27.30
2018-07-04T12:22:58.690Z,27.30
2018-07-04T12:25:27.060Z,27.50
2018-07-04T12:27:55.697Z,27.60
2018-07-04T12:30:24.072Z,27.70
2018-07-04T12:32:52.441Z,27.60
2018-07-04T12:35:20.986Z,27.60
2018-07-04T12:37:49.610Z,27.60
2018-07-04T12:40:17.899Z,27.60
2018-07-04T12:42:46.308Z,27.50
2018-07-04T12:45:14.720Z,27.50
2018-07-04T12:47:43.088Z,27.60
2018-07-04T12:50:26.416Z,27.30
2018-07-04T12:52:55.117Z,27.50
2018-07-04T12:55:43.751Z,27.60
2018-07-04T12:58:30.842Z,27.60
2018-07-04T13:01:17.716Z,27.70
2018-07-04T13:04:04.752Z,27.50
2018-07-04T13:06:51.816Z,27.40
2018-07-04T13:09:38.719Z,27.50
2018-07-04T13:12:25.578Z,27.30
2018-07-04T13:15:12.740Z,27.20
2018-07-04T13:18:00.101Z,27.30
2018-07-04T13:20:47.303Z,27.20
2018-07-04T13:23:34.333Z,27.10
2018-07-04T13:26:21.232Z,27.10
2018-07-04T13:29:08.308Z,27.20
2018-07-04T13:31:55.481Z,27.20
2018-07-04T13:34:42.331Z,27.30
2018-07-04T13:37:29.384Z,27.50
2018-07-04T13:40:16.559Z,27.50
2018-07-04T13:43:03.555Z,27.50
2018-07-04T13:45:50.527Z,27.60
2018-07-04T13:48:37.589Z,27.80
2018-07-04T13:51:24.676Z,27.70
2018-07-04T13:54:11.758Z,27.90
2018-07-04T13:56:58.908Z,27.70
2018-07-04T13:59:45.708Z,27.70
2018-07-04T14:02:32.644Z,27.70
2018-07-04T14:05:19.941Z,27.70
2018-07-04T14:08:06.885Z,27.70
2018-07-04T14:10:53.948Z,27.70
2018-07-04T14:13:41.068Z,27.40
2018-07-04T14:16:28.216Z,27.30
2018-07-04T14:19:15.056Z,27.10
2018-07-04T14:22:01.904Z,26.70
2018-07-04T14:24:49.144Z,26.60
2018-07-04T14:27:36.253Z,26.50
2018-07-04T14:30:23.355Z,26.60
2018-07-04T14:33:11.026Z,26.60
2018-07-04T14:35:58.405Z,26.70
2018-07-04T14:38:45.414Z,26.60
2018-07-04T14:41:32.341Z,26.70
2018-07-04T14:44:19.292Z,26.70
2018-07-04T14:47:06.320Z,26.70
2018-07-04T14:49:53.643Z,26.60
2018-07-04T14:52:40.630Z,26.50
2018-07-04T14:55:27.925Z,26.50
2018-07-04T14:58:14.930Z,26.60
2018-07-04T15:01:02.003Z,26.50
2018-07-04T15:03:48.948Z,26.50
2018-07-04T15:06:36.820Z,26.50
2018-07-04T15:09:24.060Z,26.40
2018-07-04T15:12:11.303Z,26.40
2018-07-04T15:14:58.539Z,26.40
2018-07-04T15:17:45.483Z,26.40
2018-07-04T15:20:32.454Z,26.30
2018-07-04T15:23:19.669Z,26.30
2018-07-04T15:26:06.438Z,26.30
2018-07-04T15:28:53.415Z,26.30
2018-07-04T15:31:40.332Z,26.30
2018-07-04T15:34:27.973Z,26.30
2018-07-04T15:37:15.084Z,26.30
2018-07-04T15:40:02.288Z,26.30
2018-07-04T15:42:43.186Z,26.30
2018-07-04T15:45:31.227Z,26.40
2018-07-04T15:48:18.280Z,26.30
2018-07-04T15:51:05.456Z,26.20
2018-07-04T15:53:52.652Z,26.20
2018-07-04T15:56:39.808Z,26.10
2018-07-04T15:59:27.021Z,26.10
2018-07-04T16:02:14.440Z,26.00
2018-07-04T16:05:01.489Z,26.20
2018-07-04T16:07:48.726Z,26.10
2018-07-04T16:10:35.865Z,26.10
2018-07-04T16:13:17.432Z,26.00
2018-07-04T16:16:04.653Z,26.00
2018-07-04T16:18:51.804Z,25.90
2018-07-04T16:21:34.703Z,25.90
2018-07-04T16:24:21.840Z,25.80
2018-07-04T16:27:08.941Z,25.80
2018-07-04T16:29:56.040Z,25.80
2018-07-04T16:32:43.068Z,25.80
2018-07-04T16:35:30.209Z,25.90
2018-07-04T16:38:17.173Z,25.70
2018-07-04T16:41:04.141Z,25.80
2018-07-04T16:43:51.276Z,25.80
2018-07-04T16:46:38.316Z,25.70
2018-07-04T16:49:25.321Z,25.70
2018-07-04T16:52:12.296Z,25.70
2018-07-04T16:54:59.429Z,25.60
2018-07-04T16:57:46.556Z,25.60
2018-07-04T17:00:33.528Z,25.50
2018-07-04T17:03:20.548Z,25.50
2018-07-04T17:06:07.514Z,25.40
2018-07-04T17:08:54.544Z,25.30
2018-07-04T17:11:41.545Z,25.30
2018-07-04T17:14:28.674Z,25.40
2018-07-04T17:17:15.615Z,25.40
2018-07-04T17:20:02.888Z,25.30
2018-07-04T17:22:49.776Z,25.10
2018-07-04T17:25:36.809Z,25.00
2018-07-04T17:28:24.284Z,24.90
2018-07-04T17:31:11.317Z,24.90
2018-07-04T17:33:58.420Z,24.60
2018-07-04T17:36:45.555Z,24.40
2018-07-04T17:39:32.516Z,24.20
2018-07-04T17:42:19.632Z,24.10
2018-07-04T17:45:06.684Z,24.00
2018-07-04T17:47:53.696Z,23.90
2018-07-04T17:50:40.849Z,23.70
2018-07-04T17:53:28.035Z,23.50
2018-07-04T17:56:14.992Z,23.20
2018-07-04T17:59:02.016Z,23.10
2018-07-04T18:01:43.209Z,22.90
2018-07-04T18:04:30.164Z,22.80
2018-07-04T18:07:17.220Z,22.60
2018-07-04T18:10:04.179Z,22.30
2018-07-04T18:12:51.216Z,22.10
2018-07-04T18:15:38.352Z,21.90
2018-07-04T18:18:25.306Z,21.60
2018-07-04T18:21:17.527Z,21.40
2018-07-04T18:24:05.635Z,21.30
2018-07-04T18:26:52.615Z,21.10
2018-07-04T18:29:39.668Z,20.90
2018-07-04T18:32:26.783Z,20.80
2018-07-04T18:35:13.861Z,20.80
2018-07-04T18:38:00.904Z,20.60
2018-07-04T18:40:48.025Z,20.60
2018-07-04T18:43:35.146Z,20.50
2018-07-04T18:46:22.044Z,20.50
2018-07-04T18:49:09.040Z,20.40
2018-07-04T18:51:55.967Z,20.40
2018-07-04T18:54:42.896Z,20.30
2018-07-04T18:57:30.021Z,20.30
2018-07-04T19:00:16.832Z,20.10
2018-07-04T19:03:03.884Z,20.10
2018-07-04T19:05:51.851Z,19.80
2018-07-04T19:08:38.809Z,19.70
2018-07-04T19:11:25.852Z,19.70
2018-07-04T19:14:12.897Z,19.60
2018-07-04T19:16:59.809Z,19.60
2018-07-04T19:19:46.728Z,19.50
2018-07-04T19:22:33.765Z,19.50
2018-07-04T19:25:20.837Z,19.50
2018-07-04T19:28:07.976Z,19.40
2018-07-04T19:30:55.152Z,19.40
2018-07-04T19:33:42.344Z,19.30
2018-07-04T19:36:29.377Z,19.40
2018-07-04T19:39:16.385Z,19.40
2018-07-04T19:42:03.516Z,19.40
2018-07-04T19:44:50.498Z,19.40
2018-07-04T19:47:31.596Z,19.40
2018-07-04T19:50:18.361Z,19.30
2018-07-04T19:53:05.824Z,19.40
2018-07-04T19:55:52.908Z,19.30
2018-07-04T19:58:40.075Z,19.20
2018-07-04T20:01:26.920Z,19.30
2018-07-04T20:04:14.220Z,19.20
2018-07-04T20:07:01.296Z,19.20
2018-07-04T20:09:48.340Z,19.20
2018-07-04T20:12:35.263Z,19.30
2018-07-04T20:15:22.696Z,19.20
2018-07-04T20:18:09.855Z,19.20
2018-07-04T20:20:56.844Z,19.30
2018-07-04T20:23:43.955Z,19.30
2018-07-04T20:26:30.996Z,19.20
2018-07-04T20:29:18.172Z,19.20
2018-07-04T20:32:05.202Z,19.10
2018-07-04T20:34:52.536Z,19.00
2018-07-04T20:37:39.780Z,19.00
2018-07-04T20:40:26.820Z,19.00
2018-07-04T20:43:14.386Z,19.00
2018-07-04T20:46:01.445Z,18.90
2018-07-04T20:48:48.449Z,18.90
2018-07-04T20:51:35.542Z,18.70
2018-07-04T20:54:22.541Z,18.80
2018-07-04T20:57:09.517Z,19.00
2018-07-04T20:59:56.603Z,19.10
2018-07-04T21:02:43.560Z,19.10
2018-07-04T21:05:30.618Z,19.00
2018-07-04T21:08:17.409Z,18.90
2018-07-04T21:11:04.466Z,18.80
2018-07-04T21:13:52.498Z,18.80
2018-07-04T21:16:39.707Z,18.70
2018-07-04T21:19:26.748Z,18.80
2018-07-04T21:22:13.733Z,18.80
2018-07-04T21:25:00.730Z,18.70
2018-07-04T21:27:47.677Z,18.60
2018-07-04T21:30:34.657Z,18.50
2018-07-04T21:33:21.696Z,18.40
2018-07-04T21:36:08.493Z,18.20
2018-07-04T21:38:55.553Z,18.20
2018-07-04T21:41:42.521Z,18.00
2018-07-04T21:44:29.548Z,17.90
2018-07-04T21:47:16.352Z,17.90
2018-07-04T21:50:03.268Z,17.80
2018-07-04T21:52:50.302Z,17.70
2018-07-04T21:55:37.322Z,17.70
2018-07-04T21:58:24.481Z,17.60
2018-07-04T22:01:11.538Z,17.50
2018-07-04T22:03:59.420Z,17.50
2018-07-04T22:06:46.341Z,17.20
2018-07-04T22:09:33.157Z,17.10
2018-07-04T22:12:22.104Z,17.10
2018-07-04T22:15:09.089Z,17.00
2018-07-04T22:17:56.074Z,16.90
2018-07-04T22:20:42.842Z,16.90
2018-07-04T22:23:29.752Z,16.80
2018-07-04T22:26:16.815Z,16.70
2018-07-04T22:29:03.716Z,16.60
2018-07-04T22:31:50.720Z,16.60
2018-07-04T22:34:37.796Z,16.70
2018-07-04T22:37:24.673Z,16.70
2018-07-04T22:40:11.716Z,16.60
2018-07-04T22:42:58.595Z,16.60
2018-07-04T22:45:45.617Z,16.40
2018-07-04T22:48:32.420Z,16.40
2018-07-04T22:51:19.449Z,16.40
2018-07-04T22:54:06.505Z,16.40
2018-07-04T22:56:53.479Z,16.20
2018-07-04T22:59:45.615Z,16.20
2018-07-04T23:02:32.758Z,16.10
2018-07-04T23:05:19.614Z,16.10
2018-07-04T23:08:06.693Z,16.10
2018-07-04T23:10:53.756Z,16.00
2018-07-04T23:13:40.677Z,16.00
2018-07-04T23:16:27.626Z,15.90
2018-07-04T23:19:14.576Z,15.80
2018-07-04T23:22:01.383Z,15.80
2018-07-04T23:24:48.695Z,15.70
2018-07-04T23:27:35.505Z,15.60
2018-07-04T23:30:22.547Z,15.60
2018-07-04T23:33:09.610Z,15.60
2018-07-04T23:35:56.740Z,15.50
2018-07-04T23:38:43.661Z,15.60
2018-07-04T23:41:30.789Z,15.50
2018-07-04T23:44:17.700Z,15.60
2018-07-04T23:47:04.537Z,15.60
2018-07-04T23:49:51.473Z,15.60
2018-07-04T23:52:38.494Z,15.40
2018-07-04T23:55:19.323Z,15.40
2018-07-04T23:58:06.413Z,15.20
